createdAt,value
2023-04-04T00:01:53.791Z,1.80
2023-04-04T00:04:20.294Z,1.70
2023-04-04T00:06:46.750Z,2.10
2023-04-04T00:09:13.296Z,2.00
2023-04-04T00:11:41.369Z,2.00
2023-04-04T00:14:08.179Z,1.80
2023-04-04T00:16:34.768Z,1.70
2023-04-04T00:19:01.359Z,2.90
2023-04-04T00:21:27.852Z,2.00
2023-04-04T00:23:54.600Z,2.30
2023-04-04T00:26:21.079Z,2.30
2023-04-04T00:28:47.647Z,1.80
2023-04-04T00:31:14.661Z,1.80
2023-04-04T00:33:41.275Z,1.80
2023-04-04T00:36:07.833Z,2.10
2023-04-04T00:38:34.437Z,2.00
2023-04-04T00:41:01.177Z,2.10
2023-04-04T00:43:27.988Z,2.20
2023-04-04T00:45:54.530Z,2.20
2023-04-04T00:48:21.009Z,2.20
2023-04-04T00:50:47.491Z,1.80
2023-04-04T00:53:13.996Z,2.10
2023-04-04T00:55:40.624Z,2.10
2023-04-04T00:58:07.098Z,2.30
2023-04-04T01:00:35.622Z,2.10
2023-04-04T01:03:02.272Z,2.40
2023-04-04T01:05:28.835Z,2.90
2023-04-04T01:07:55.364Z,2.20
2023-04-04T01:10:21.854Z,2.60
2023-04-04T01:12:48.613Z,2.80
2023-04-04T01:15:15.205Z,3.00
2023-04-04T01:17:42.346Z,3.00
2023-04-04T01:20:15.621Z,2.90
2023-04-04T01:22:45.825Z,2.40
2023-04-04T01:25:14.329Z,2.00
2023-04-04T01:27:40.894Z,2.30
2023-04-04T01:30:08.928Z,1.70
2023-04-04T01:32:44.487Z,2.10
2023-04-04T01:35:33.041Z,2.10
2023-04-04T01:38:02.678Z,2.80
2023-04-04T01:40:33.080Z,2.20
2023-04-04T01:42:59.651Z,2.10
2023-04-04T01:45:26.349Z,2.60
2023-04-04T01:47:52.859Z,2.10
2023-04-04T01:50:19.470Z,2.20
2023-04-04T01:52:45.934Z,2.40
2023-04-04T01:55:12.474Z,1.90
2023-04-04T01:57:39.053Z,2.00
2023-04-04T02:00:06.160Z,1.80
2023-04-04T02:02:32.748Z,2.00
2023-04-04T02:04:59.220Z,1.70
2023-04-04T02:07:25.718Z,2.30
2023-04-04T02:09:52.207Z,1.90
2023-04-04T02:12:18.723Z,1.90
2023-04-04T02:14:45.221Z,2.00
2023-04-04T02:17:11.756Z,2.30
2023-04-04T02:19:38.359Z,2.00
2023-04-04T02:22:04.838Z,2.60
2023-04-04T02:24:31.265Z,2.50
2023-04-04T02:26:57.720Z,2.30
2023-04-04T02:29:24.308Z,2.00
2023-04-04T02:31:50.821Z,2.50
2023-04-04T02:34:17.325Z,2.20
2023-04-04T02:36:43.816Z,2.40
2023-04-04T02:39:10.374Z,1.90
2023-04-04T02:41:36.948Z,2.50
2023-04-04T02:44:03.405Z,2.20
2023-04-04T02:46:29.906Z,2.10
2023-04-04T02:48:56.369Z,2.60
2023-04-04T02:51:22.911Z,2.40
2023-04-04T02:53:49.377Z,2.50
2023-04-04T02:56:15.886Z,2.60
2023-04-04T02:58:42.843Z,2.70
2023-04-04T03:01:09.378Z,2.50
2023-04-04T03:03:36.063Z,2.30
2023-04-04T03:06:02.708Z,2.50
2023-04-04T03:08:29.308Z,2.20
2023-04-04T03:10:56.408Z,2.30
2023-04-04T03:13:22.912Z,2.50
2023-04-04T03:15:49.465Z,2.70
2023-04-04T03:18:15.973Z,2.40
2023-04-04T03:20:42.641Z,2.40
2023-04-04T03:23:09.245Z,2.60
2023-04-04T03:25:35.712Z,2.10
2023-04-04T03:28:11.676Z,2.20
2023-04-04T03:30:38.842Z,2.50
2023-04-04T03:33:08.713Z,2.20
2023-04-04T03:35:39.452Z,1.90
2023-04-04T03:38:06.702Z,2.60
2023-04-04T03:40:33.205Z,2.10
2023-04-04T03:42:59.730Z,2.20
2023-04-04T03:45:26.202Z,2.40
2023-04-04T03:47:52.781Z,2.70
2023-04-04T03:50:19.370Z,2.40
2023-04-04T03:52:45.825Z,2.30
2023-04-04T03:55:12.341Z,2.20
2023-04-04T03:57:38.940Z,2.30
2023-04-04T04:00:06.016Z,2.50
2023-04-04T04:02:32.556Z,2.40
2023-04-04T04:04:59.122Z,2.40
2023-04-04T04:07:25.609Z,2.70
2023-04-04T04:09:52.092Z,2.40
2023-04-04T04:12:18.573Z,2.50
2023-04-04T04:14:45.035Z,1.70
2023-04-04T04:17:11.489Z,2.40
2023-04-04T04:19:37.949Z,2.60
2023-04-04T04:22:04.459Z,2.40
2023-04-04T04:24:30.911Z,2.60
2023-04-04T04:26:57.386Z,2.40
2023-04-04T04:29:23.845Z,2.40
2023-04-04T04:31:50.320Z,2.30
2023-04-04T04:34:16.803Z,2.70
2023-04-04T04:36:43.271Z,2.60
2023-04-04T04:39:09.787Z,2.40
2023-04-04T04:41:36.280Z,1.80
2023-04-04T04:44:02.862Z,2.50
2023-04-04T04:46:29.371Z,2.70
2023-04-04T04:48:55.935Z,2.20
2023-04-04T04:51:22.499Z,2.40
2023-04-04T04:53:49.012Z,2.80
2023-04-04T04:56:15.515Z,2.40
2023-04-04T04:58:42.006Z,2.20
2023-04-04T05:01:08.529Z,2.70
2023-04-04T05:03:35.135Z,2.40
2023-04-04T05:06:01.589Z,2.30
2023-04-04T05:08:28.150Z,2.50
2023-04-04T05:10:54.594Z,2.70
2023-04-04T05:13:21.092Z,2.10
2023-04-04T05:15:47.630Z,2.80
2023-04-04T05:18:14.133Z,2.90
2023-04-04T05:20:40.960Z,2.70
2023-04-04T05:23:07.806Z,2.50
2023-04-04T05:25:34.757Z,2.70
2023-04-04T05:28:01.207Z,2.60
2023-04-04T05:30:27.764Z,2.90
2023-04-04T05:32:54.351Z,2.60
2023-04-04T05:35:21.125Z,2.70
2023-04-04T05:37:47.640Z,2.60
2023-04-04T05:40:14.378Z,2.40
2023-04-04T05:42:40.873Z,2.40
2023-04-04T05:45:08.204Z,3.00
2023-04-04T05:47:34.780Z,3.10
2023-04-04T05:50:01.255Z,2.80
2023-04-04T05:52:27.720Z,2.90
2023-04-04T05:54:54.217Z,3.00
2023-04-04T05:57:20.721Z,3.10
2023-04-04T05:59:47.192Z,2.70
2023-04-04T06:02:13.747Z,2.60
2023-04-04T06:04:40.381Z,2.50
2023-04-04T06:07:07.581Z,2.40
2023-04-04T06:09:34.065Z,2.60
2023-04-04T06:12:00.572Z,2.90
2023-04-04T06:14:27.062Z,3.10
2023-04-04T06:16:54.138Z,2.20
2023-04-04T06:19:21.921Z,2.90
2023-04-04T06:21:48.514Z,2.70
2023-04-04T06:24:15.023Z,2.60
2023-04-04T06:26:41.499Z,2.90
2023-04-04T06:29:07.998Z,2.50
2023-04-04T06:31:34.540Z,3.40
2023-04-04T06:34:01.134Z,2.60
2023-04-04T06:36:27.658Z,2.50
2023-04-04T06:38:54.318Z,1.80
2023-04-04T06:41:20.811Z,2.60
2023-04-04T06:43:47.331Z,2.40
2023-04-04T06:46:14.001Z,2.70
2023-04-04T06:48:40.513Z,2.70
2023-04-04T06:51:08.194Z,2.30
2023-04-04T06:53:35.147Z,3.10
2023-04-04T06:56:01.627Z,2.90
2023-04-04T06:58:28.279Z,2.80
2023-04-04T07:00:54.853Z,2.40
2023-04-04T07:03:21.481Z,2.50
2023-04-04T07:05:48.021Z,2.80
2023-04-04T07:08:14.555Z,2.30
2023-04-04T07:10:41.355Z,2.80
2023-04-04T07:13:08.164Z,2.70
2023-04-04T07:15:34.652Z,2.80
2023-04-04T07:18:01.192Z,2.60
2023-04-04T07:20:27.929Z,2.50
2023-04-04T07:22:54.884Z,2.50
2023-04-04T07:25:22.736Z,3.40
2023-04-04T07:27:50.424Z,2.80
2023-04-04T07:30:19.677Z,2.90
2023-04-04T07:32:46.188Z,2.30
2023-04-04T07:35:12.708Z,3.10
2023-04-04T07:37:39.151Z,2.50
2023-04-04T07:40:07.337Z,2.90
2023-04-04T07:42:33.843Z,1.90
2023-04-04T07:45:00.318Z,2.80
2023-04-04T07:47:26.821Z,2.80
2023-04-04T07:49:53.320Z,2.80
2023-04-04T07:52:19.782Z,2.80
2023-04-04T07:54:46.279Z,2.90
2023-04-04T07:57:12.744Z,2.70
2023-04-04T07:59:39.221Z,3.10
2023-04-04T08:02:05.678Z,2.90
2023-04-04T08:04:32.223Z,2.70
2023-04-04T08:06:58.830Z,3.00
2023-04-04T08:09:25.450Z,3.60
2023-04-04T08:11:52.159Z,5.20
2023-04-04T08:14:18.630Z,4.00
2023-04-04T08:16:45.209Z,4.40
2023-04-04T08:19:11.732Z,2.80
2023-04-04T08:21:38.226Z,3.70
2023-04-04T08:24:04.850Z,2.90
2023-04-04T08:26:31.313Z,2.70
2023-04-04T08:28:57.804Z,2.90
2023-04-04T08:31:24.398Z,2.90
2023-04-04T08:33:50.957Z,2.30
2023-04-04T08:36:17.564Z,2.60
2023-04-04T08:38:44.222Z,2.80
2023-04-04T08:41:12.194Z,2.90
2023-04-04T08:43:39.414Z,3.10
2023-04-04T08:46:05.977Z,3.00
2023-04-04T08:48:33.956Z,2.70
2023-04-04T08:51:00.564Z,3.00
2023-04-04T08:53:29.412Z,2.70
2023-04-04T08:56:00.112Z,2.90
2023-04-04T08:58:27.506Z,2.80
2023-04-04T09:00:55.312Z,2.40
2023-04-04T09:03:26.660Z,2.80
2023-04-04T09:05:56.520Z,2.80
2023-04-04T09:08:23.350Z,2.90
2023-04-04T09:10:50.600Z,2.70
2023-04-04T09:13:17.369Z,2.90
2023-04-04T09:15:47.624Z,2.60
2023-04-04T09:18:14.226Z,3.00
2023-04-04T09:20:44.463Z,2.90
2023-04-04T09:23:15.992Z,2.80
2023-04-04T09:26:03.755Z,3.30
2023-04-04T09:28:31.882Z,2.90
2023-04-04T09:31:01.526Z,3.10
2023-04-04T09:33:28.069Z,2.80
2023-04-04T09:35:57.593Z,2.60
2023-04-04T09:38:25.377Z,2.90
2023-04-04T09:40:52.813Z,2.70
2023-04-04T09:43:19.668Z,2.80
2023-04-04T09:45:46.841Z,2.70
2023-04-04T09:48:25.071Z,2.80
2023-04-04T09:50:51.602Z,2.70
2023-04-04T09:53:18.882Z,2.70
2023-04-04T09:55:53.262Z,2.60
2023-04-04T09:58:25.588Z,2.90
2023-04-04T10:00:56.979Z,2.80
2023-04-04T10:03:24.371Z,3.30
2023-04-04T10:06:01.103Z,2.70
2023-04-04T10:08:29.287Z,2.80
2023-04-04T10:13:35.004Z,3.00
2023-04-04T10:16:04.838Z,2.60
2023-04-04T10:18:33.371Z,2.90
2023-04-04T10:21:14.695Z,2.90
2023-04-04T10:23:45.178Z,2.80
2023-04-04T10:26:11.791Z,2.80
2023-04-04T10:28:38.355Z,2.70
2023-04-04T10:31:22.884Z,2.70
2023-04-04T10:34:26.786Z,2.80
2023-04-04T10:37:15.443Z,2.90
2023-04-04T10:39:51.896Z,3.10
2023-04-04T10:42:19.404Z,2.80
2023-04-04T10:44:47.188Z,2.60
2023-04-04T10:47:24.874Z,2.90
2023-04-04T10:49:52.064Z,2.80
2023-04-04T10:52:20.627Z,2.70
2023-04-04T10:54:52.678Z,2.80
2023-04-04T10:57:21.002Z,2.60
2023-04-04T11:00:02.622Z,2.70
2023-04-04T11:02:46.257Z,2.50
2023-04-04T11:05:35.586Z,3.00
2023-04-04T11:08:08.997Z,2.30
2023-04-04T11:10:36.484Z,2.60
2023-04-04T11:13:13.331Z,2.90
2023-04-04T11:15:53.268Z,2.20
2023-04-04T11:18:32.068Z,2.30
2023-04-04T11:21:03.731Z,3.30
2023-04-04T11:23:48.579Z,2.50
2023-04-04T11:26:34.144Z,2.50
2023-04-04T11:29:03.023Z,2.20
2023-04-04T11:31:33.768Z,2.50
2023-04-04T11:34:11.552Z,2.40
2023-04-04T11:36:38.150Z,2.20
2023-04-04T11:39:24.240Z,2.50
2023-04-04T11:42:06.426Z,2.40
2023-04-04T11:44:34.532Z,2.50
2023-04-04T11:47:02.752Z,2.10
2023-04-04T11:49:33.139Z,2.50
2023-04-04T11:51:59.642Z,2.30
2023-04-04T11:54:26.720Z,2.30
2023-04-04T11:56:53.253Z,2.50
2023-04-04T11:59:21.771Z,2.40
2023-04-04T12:01:48.614Z,2.60
2023-04-04T12:04:19.299Z,2.40
2023-04-04T12:06:56.447Z,2.50
2023-04-04T12:09:25.428Z,2.60
2023-04-04T12:11:52.448Z,2.50
2023-04-04T12:14:23.755Z,2.70
2023-04-04T12:16:55.128Z,2.60
2023-04-04T12:19:25.978Z,2.60
2023-04-04T12:21:53.612Z,2.70
2023-04-04T12:24:20.930Z,2.80
2023-04-04T12:26:51.054Z,2.50
2023-04-04T12:29:19.877Z,5.60
2023-04-04T12:31:46.927Z,2.70
2023-04-04T12:34:23.382Z,2.50
2023-04-04T12:36:54.430Z,2.60
2023-04-04T12:39:22.612Z,2.60
2023-04-04T12:41:53.158Z,2.50
2023-04-04T12:44:34.693Z,2.90
2023-04-04T12:47:03.830Z,2.60
2023-04-04T12:49:32.362Z,3.50
2023-04-04T12:51:59.248Z,2.70
2023-04-04T12:54:27.959Z,2.70
2023-04-04T12:56:58.557Z,2.50
2023-04-04T12:59:29.389Z,2.30
2023-04-04T13:01:56.701Z,2.70
2023-04-04T13:04:24.694Z,2.80
2023-04-04T13:06:51.448Z,2.70
2023-04-04T13:09:19.426Z,2.30
2023-04-04T13:12:00.745Z,2.60
2023-04-04T13:14:59.028Z,2.30
2023-04-04T13:17:25.836Z,2.70
2023-04-04T13:19:52.692Z,2.60
2023-04-04T13:22:19.207Z,2.60
2023-04-04T13:24:45.785Z,2.60
2023-04-04T13:27:12.681Z,2.70
2023-04-04T13:29:40.009Z,3.10
2023-04-04T13:32:06.674Z,2.80
2023-04-04T13:34:33.166Z,3.60
2023-04-04T13:36:59.764Z,2.70
2023-04-04T13:39:26.436Z,2.90
2023-04-04T13:41:52.976Z,2.40
2023-04-04T13:44:19.524Z,2.70
2023-04-04T13:46:46.125Z,2.80
2023-04-04T13:49:12.645Z,2.50
2023-04-04T13:51:39.248Z,2.80
2023-04-04T13:54:05.797Z,2.70
2023-04-04T13:56:32.317Z,2.70
2023-04-04T13:58:58.849Z,2.80
2023-04-04T14:01:25.506Z,2.70
2023-04-04T14:03:52.065Z,2.50
2023-04-04T14:06:18.609Z,2.50
2023-04-04T14:08:45.134Z,2.70
2023-04-04T14:11:11.603Z,2.50
2023-04-04T14:13:38.088Z,2.90
2023-04-04T14:16:05.367Z,3.40
2023-04-04T14:18:32.131Z,2.80
2023-04-04T14:20:58.622Z,2.80
2023-04-04T14:23:25.142Z,2.60
2023-04-04T14:25:51.800Z,2.70
2023-04-04T14:28:18.965Z,2.70
2023-04-04T14:30:45.446Z,2.30
2023-04-04T14:33:12.128Z,2.50
2023-04-04T14:35:38.890Z,2.80
2023-04-04T14:38:05.737Z,3.10
2023-04-04T14:40:32.249Z,2.60
2023-04-04T14:42:59.220Z,2.90
2023-04-04T14:45:26.260Z,2.50
2023-04-04T14:47:52.779Z,2.80
2023-04-04T14:50:19.299Z,2.90
2023-04-04T14:52:45.796Z,2.70
2023-04-04T14:55:12.272Z,2.50
2023-04-04T14:57:51.854Z,2.80
2023-04-04T15:00:19.240Z,3.20
2023-04-04T15:02:49.153Z,2.80
2023-04-04T15:05:15.924Z,5.40
2023-04-04T15:07:42.746Z,2.60
2023-04-04T15:10:09.460Z,3.20
2023-04-04T15:12:35.990Z,3.00
2023-04-04T15:15:02.520Z,2.50
2023-04-04T15:17:29.064Z,2.90
2023-04-04T15:19:55.638Z,3.00
2023-04-04T15:22:22.226Z,2.60
2023-04-04T15:24:48.741Z,3.90
2023-04-04T15:27:15.238Z,2.70
2023-04-04T15:29:41.876Z,3.00
2023-04-04T15:32:10.940Z,3.00
2023-04-04T15:34:37.465Z,4.60
2023-04-04T15:37:03.926Z,4.00
2023-04-04T15:39:37.099Z,4.00
2023-04-04T15:42:09.432Z,3.60
2023-04-04T15:44:35.956Z,3.10
2023-04-04T15:47:02.702Z,3.10
2023-04-04T15:49:29.256Z,2.50
2023-04-04T15:51:55.909Z,2.80
2023-04-04T15:54:22.423Z,2.90
2023-04-04T15:56:48.992Z,2.70
2023-04-04T15:59:15.682Z,3.30
2023-04-04T16:01:42.409Z,2.90
2023-04-04T16:04:09.023Z,3.00
2023-04-04T16:06:36.976Z,2.80
2023-04-04T16:09:04.169Z,3.00
2023-04-04T16:11:30.764Z,2.90
2023-04-04T16:13:57.309Z,2.70
2023-04-04T16:16:23.920Z,2.90
2023-04-04T16:18:50.475Z,2.80
2023-04-04T16:21:17.006Z,2.80
2023-04-04T16:23:43.531Z,3.40
2023-04-04T16:26:10.132Z,3.10
2023-04-04T16:28:36.610Z,2.50
2023-04-04T16:31:03.125Z,3.10
2023-04-04T16:33:29.687Z,2.90
2023-04-04T16:35:56.189Z,3.00
2023-04-04T16:38:22.695Z,2.90
2023-04-04T16:40:49.207Z,3.00
2023-04-04T16:43:15.942Z,2.60
2023-04-04T16:45:42.551Z,2.90
2023-04-04T16:48:11.507Z,3.20
2023-04-04T16:50:38.269Z,3.50
2023-04-04T16:53:04.902Z,3.00
2023-04-04T16:55:31.490Z,3.20
2023-04-04T16:57:58.508Z,3.30
2023-04-04T17:00:25.118Z,3.10
2023-04-04T17:02:51.816Z,3.00
2023-04-04T17:05:18.485Z,3.10
2023-04-04T17:07:44.987Z,3.20
2023-04-04T17:10:12.557Z,3.40
2023-04-04T17:12:39.253Z,3.20
2023-04-04T17:15:07.086Z,3.30
2023-04-04T17:17:33.684Z,3.10
2023-04-04T17:20:00.282Z,3.20
2023-04-04T17:22:26.851Z,3.30
2023-04-04T17:24:53.337Z,3.10
2023-04-04T17:27:19.833Z,3.80
2023-04-04T17:29:46.336Z,3.60
2023-04-04T17:32:13.077Z,3.80
2023-04-04T17:34:39.736Z,3.50
2023-04-04T17:37:06.221Z,3.60
2023-04-04T17:39:32.774Z,3.60
2023-04-04T17:41:59.293Z,4.20
2023-04-04T17:44:25.802Z,3.50
2023-04-04T17:46:52.308Z,3.50
2023-04-04T17:49:18.788Z,3.90
2023-04-04T17:51:49.699Z,3.90
2023-04-04T17:54:18.494Z,3.80
2023-04-04T17:56:46.362Z,3.40
2023-04-04T17:59:13.509Z,3.70
2023-04-04T18:01:40.617Z,3.60
2023-04-04T18:04:07.183Z,3.60
2023-04-04T18:06:33.711Z,3.90
2023-04-04T18:09:00.204Z,4.20
2023-04-04T18:11:29.399Z,3.40
2023-04-04T18:13:55.842Z,3.30
2023-04-04T18:16:22.913Z,3.30
2023-04-04T18:18:49.411Z,3.20
2023-04-04T18:21:15.863Z,3.40
2023-04-04T18:23:42.359Z,3.50
2023-04-04T18:26:09.336Z,3.60
2023-04-04T18:28:35.835Z,3.60
2023-04-04T18:31:03.350Z,3.60
2023-04-04T18:33:29.849Z,3.60
2023-04-04T18:35:56.371Z,3.40
2023-04-04T18:38:22.933Z,3.70
2023-04-04T18:40:49.410Z,4.10
2023-04-04T18:43:15.912Z,4.20
2023-04-04T18:45:42.401Z,3.90
2023-04-04T18:48:09.264Z,3.30
2023-04-04T18:50:35.956Z,4.10
2023-04-04T18:53:02.489Z,4.10
2023-04-04T18:55:28.971Z,3.80
2023-04-04T18:57:55.457Z,3.90
2023-04-04T19:00:21.944Z,3.90
2023-04-04T19:02:49.523Z,3.30
2023-04-04T19:05:22.425Z,3.50
2023-04-04T19:07:51.056Z,3.80
2023-04-04T19:10:20.613Z,3.90
2023-04-04T19:12:47.208Z,3.40
2023-04-04T19:15:16.375Z,3.70
2023-04-04T19:17:43.088Z,3.70
2023-04-04T19:20:10.478Z,3.50
2023-04-04T19:22:36.997Z,3.60
2023-04-04T19:25:03.772Z,4.60
2023-04-04T19:27:30.328Z,4.30
2023-04-04T19:29:56.787Z,4.30
2023-04-04T19:32:26.589Z,5.30
2023-04-04T19:34:53.084Z,4.80
2023-04-04T19:37:19.560Z,3.80
2023-04-04T19:39:46.077Z,3.90
2023-04-04T19:42:12.555Z,3.60
2023-04-04T19:44:40.721Z,3.50
2023-04-04T19:47:09.518Z,3.20
2023-04-04T19:49:36.025Z,2.90
2023-04-04T19:52:05.271Z,3.10
2023-04-04T19:54:33.889Z,3.00
2023-04-04T19:57:08.560Z,3.20
2023-04-04T19:59:40.857Z,3.60
2023-04-04T20:02:19.942Z,3.20
2023-04-04T20:04:47.029Z,2.90
2023-04-04T20:07:13.968Z,3.30
2023-04-04T20:09:40.672Z,3.10
2023-04-04T20:12:07.381Z,3.20
2023-04-04T20:14:34.296Z,3.30
2023-04-04T20:17:00.816Z,3.40
2023-04-04T20:19:28.541Z,3.30
2023-04-04T20:21:55.616Z,3.40
2023-04-04T20:24:22.350Z,3.30
2023-04-04T20:26:55.887Z,3.20
2023-04-04T20:29:26.295Z,3.40
2023-04-04T20:32:08.455Z,3.80
2023-04-04T20:34:45.418Z,3.60
2023-04-04T20:37:19.098Z,3.90
2023-04-04T20:39:53.031Z,3.70
2023-04-04T20:42:31.401Z,3.60
2023-04-04T20:45:09.991Z,3.70
2023-04-04T20:47:53.027Z,3.20
2023-04-04T20:50:42.508Z,3.60
2023-04-04T20:53:13.763Z,3.40
2023-04-04T20:55:40.642Z,3.50
2023-04-04T20:58:23.768Z,3.70
2023-04-04T21:00:50.353Z,3.60
2023-04-04T21:03:25.760Z,3.30
2023-04-04T21:05:54.514Z,3.60
2023-04-04T21:08:23.964Z,3.10
2023-04-04T21:10:53.824Z,3.80
2023-04-04T21:13:26.730Z,3.90
2023-04-04T21:16:01.104Z,3.60
2023-04-04T21:18:30.691Z,3.60
2023-04-04T21:20:57.100Z,4.00
2023-04-04T21:23:26.385Z,3.60
2023-04-04T21:26:02.976Z,3.90
2023-04-04T21:28:37.910Z,3.60
2023-04-04T21:31:13.375Z,3.40
2023-04-04T21:33:46.047Z,4.00
2023-04-04T21:36:24.513Z,3.80
2023-04-04T21:38:56.578Z,3.80
2023-04-04T21:41:23.005Z,4.10
2023-04-04T21:43:49.985Z,3.70
2023-04-04T21:46:16.608Z,4.10
2023-04-04T21:48:43.091Z,3.80
2023-04-04T21:51:09.599Z,3.80
2023-04-04T21:53:36.053Z,3.90
2023-04-04T21:56:02.554Z,3.30
2023-04-04T21:58:29.507Z,3.50
2023-04-04T22:00:56.058Z,3.20
2023-04-04T22:03:22.546Z,3.50
2023-04-04T22:05:49.127Z,3.90
2023-04-04T22:08:15.606Z,3.60
2023-04-04T22:10:42.396Z,4.40
2023-04-04T22:13:08.975Z,4.60
2023-04-04T22:15:35.465Z,4.30
2023-04-04T22:18:01.999Z,4.60
2023-04-04T22:20:28.582Z,5.40
2023-04-04T22:22:55.073Z,4.80
2023-04-04T22:25:21.548Z,4.60
2023-04-04T22:27:48.016Z,4.90
2023-04-04T22:30:14.590Z,4.70
2023-04-04T22:32:41.156Z,4.70
2023-04-04T22:35:07.990Z,4.10
2023-04-04T22:37:34.459Z,3.90
2023-04-04T22:40:00.961Z,3.70
2023-04-04T22:42:27.445Z,3.80
2023-04-04T22:44:53.903Z,4.00
2023-04-04T22:47:20.439Z,3.70
2023-04-04T22:49:46.908Z,3.70
2023-04-04T22:52:13.514Z,4.30
2023-04-04T22:54:40.000Z,4.70
2023-04-04T22:57:06.500Z,4.20
2023-04-04T22:59:33.089Z,4.60
2023-04-04T23:01:59.606Z,4.30
2023-04-04T23:04:26.340Z,4.20
2023-04-04T23:06:53.259Z,4.40
2023-04-04T23:09:19.725Z,3.90
2023-04-04T23:11:46.213Z,3.90
2023-04-04T23:14:12.664Z,3.80
2023-04-04T23:16:39.116Z,3.60
2023-04-04T23:19:05.611Z,3.10
2023-04-04T23:21:32.267Z,3.30
2023-04-04T23:23:58.833Z,4.00
2023-04-04T23:26:25.321Z,3.90
2023-04-04T23:28:51.939Z,3.70
2023-04-04T23:31:18.473Z,4.30
2023-04-04T23:33:45.142Z,3.50
2023-04-04T23:36:11.919Z,3.40
2023-04-04T23:38:38.466Z,3.90
2023-04-04T23:41:04.995Z,3.80
2023-04-04T23:43:31.463Z,3.80
2023-04-04T23:45:58.006Z,3.40
2023-04-04T23:48:24.541Z,3.80
2023-04-04T23:50:51.052Z,3.50
2023-04-04T23:53:17.579Z,3.10
2023-04-04T23:55:44.078Z,3.20
2023-04-04T23:58:10.538Z,3.50
